Historyczne dane pomiarowe

Dodano dane terminowe – wersja testowa.

Dane z okresu 1951-2019

Wersja bazy: 1.34 [2019-03-16, lista zmian], aktualizacja planowana na 2019-04-15

Dane meteo z obszaru Polski uzyskane na podstawie danych udostępnionych przez Instytut Meteorologii i Gospodarki Wodnej – Państwowy Instytut Badawczy.

 

Wybierz Datę:    

       

TemperaturaWilgotnośćWiatrCiśnienieOpadyŚniegCzas trwania zjawisk
 Stacja t tx tn tng RH VA  wxwx mslp ppp RRR   cm mm wxwxwxwxwxwxwx
1999-08-14 11.3 19.5 1.8 -0.7 75.3- 3.7 2.0---- 1.3------------
1999-08-13 12.6 15.3 10.7 9.0 71.8- 4.0 3.3---- 0.0------------
1999-08-12 12.2 16.1 8.1 4.3 75.0- 7.3 3.0---- 0.0------------
1999-08-11 14.9 18.8 11.7 10.0 83.3- 5.0 1.3---- 1.4------------
1999-08-10 16.8 21.2 11.0 9.3 86.5- 7.7 4.0---- 0.4------------
1999-08-09 18.4 23.2 12.6 9.9 85.8- 7.0 2.3---- 0.4------------
1999-08-08 19.1 25.9 13.9 11.7 81.8- 5.7 1.7---- 0.0------------
1999-08-07 17.1 25.2 9.9 8.0 85.8- 6.0 1.7---- 0.0------------
1999-08-06 18.5 24.0 12.0 9.3 72.8- 3.3 1.0---- 0.0------------
1999-08-05 14.7 23.3 4.9 2.9 74.5- 4.3 1.0---- 0.0------------
1999-08-04 15.3 23.8 5.8 3.6 69.3- 2.3 0.3---- 0.0------------
1999-08-03 14.2 22.7 4.5 2.7 73.0- 1.3 1.3---- 0.0------------
1999-08-02 15.2 22.0 6.5 4.7 72.8- 2.7 0.7---- 0.0------------
1999-08-01 15.1 22.7 6.0 4.2 71.3- 1.3 1.3---- 0.0------------
1999-07-31 15.2 22.8 6.0 4.4 68.0- 2.0 1.3---- 0.0------------
1999-07-30 14.5 21.8 5.7 3.8 75.8- 2.7 1.0---- 0.0------------
1999-07-29 15.3 21.1 8.6 5.9 76.0- 4.0 3.0---- 0.0------------
1999-07-28 14.6 20.3 6.5 4.1 65.3- 1.0 2.0---- 0.0------------
1999-07-27 15.9 20.3 13.0 13.0 82.8- 7.3 2.3---- 0.0------------
1999-07-26 16.1 24.2 6.1 5.5 78.8- 3.3 2.7---- 4.8------------
1999-07-25 15.4 22.2 6.1 4.5 79.3- 5.0 0.0---- 0.0------------
1999-07-24 13.9 17.2 11.2 9.9 79.3- 6.7 1.3---- 0.0------------
1999-07-23 13.1 17.0 10.0 8.0 74.0- 7.3 1.0---- 1.3------------
1999-07-22 15.7 20.7 12.4 8.4 65.5- 5.3 2.0---- 0.0------------
1999-07-21 18.9 24.8 13.7 10.2 81.5- 5.0 2.0---- 11.2------------
1999-07-20 18.8 26.9 10.7 6.8 66.0- 1.7 3.3---- 0.4------------
1999-07-19 18.5 26.0 7.9 7.4 61.8- 1.0 1.7---- 0.0------------
1999-07-18 16.8 24.8 7.0 4.8 72.8- 1.7 0.0---- 0.0------------
1999-07-17 15.1 21.5 7.8 5.6 69.5- 1.7 0.0---- 0.0------------
1999-07-16 13.3 18.5 6.7 3.9 81.8- 5.0 0.7---- 3.4------------
1999-07-15 13.2 16.9 9.9 6.9 85.0- 7.0 1.3---- 0.0------------
1999-07-14 17.7 21.4 15.4 15.3 88.8- 5.7 2.0---- 6.7------------
1999-07-13 18.7 21.8 15.0 11.9 87.5- 5.7 3.7---- 20.8------------
1999-07-12 18.1 23.2 13.4 10.9 92.3- 5.0 0.0---- 8.9------------
1999-07-11 17.2 19.9 14.5 12.8 78.5- 6.7 2.0---- 1.1------------
1999-07-10 17.8 20.7 15.2 14.5 83.5- 7.3 2.3---- 0.0------------
1999-07-09 15.0 16.3 12.7 12.0 97.8- 8.0 3.7---- 5.5------------
1999-07-08 13.2 14.3 12.6 11.5 91.5- 8.0 5.3---- 4.0------------
1999-07-07 15.9 18.8 13.9 13.9 92.5- 7.3 2.0---- 1.1------------
1999-07-06 20.7 25.2 18.1 14.2 81.5- 6.3 1.7---- 42.5------------
1999-07-05 22.4 27.5 17.0 14.4 68.3- 1.7 6.0---- 0.0------------
1999-07-04 21.4 28.4 15.0 10.2 68.8- 1.0 3.7---- 0.0------------
1999-07-03 16.9 24.1 7.0 4.6 71.8- 1.7 2.0---- 0.0------------
1999-07-02 15.8 19.5 11.4 9.1 88.3- 4.7 1.7---- 0.5------------
1999-07-01 15.8 20.0 10.6 8.2 93.0- 6.7 0.0---- 20.8------------
1999-06-30 15.8 23.7 7.3 5.4 81.5- 4.7 0.0---- 0.0------------
1999-06-29 14.8 21.2 6.4 3.2 76.0- 3.3 0.3---- 0.0------------
1999-06-28 16.0 23.2 9.0 6.4 80.0- 4.7 3.3---- 0.0------------
1999-06-27 16.2 19.8 14.4 13.2 83.0- 7.7 4.0---- 1.5------------
1999-06-26 13.5 20.8 4.0 2.4 78.3- 3.7 1.0---- 0.0------------
1999-06-25 9.3 15.2 2.9 -0.1 84.5- 6.7 0.0---- 4.4------------
1999-06-24 9.3 16.3 1.2 -1.7 81.3- 7.0 0.0---- 0.0------------
1999-06-23 10.5 14.7 7.3 6.0 80.0- 6.7 1.3---- 0.0------------
1999-06-22 8.4 11.3 6.0 5.8 85.5- 8.0 7.3---- 17.4------------
1999-06-21 12.4 16.9 8.3 5.5 84.0- 8.0 4.3---- 10.9------------
1999-06-20 14.8 19.0 9.9 7.3 82.5- 3.0 3.3---- 0.0------------
1999-06-19 13.6 18.2 10.4 9.3 84.8- 6.7 1.7---- 0.0------------
1999-06-18 13.0 17.6 10.0 8.0 90.0- 7.7 7.7---- 13.8------------
1999-06-17 16.4 19.3 13.3 12.0 77.8- 7.0 1.3---- 0.0------------
1999-06-16 14.5 17.3 12.1 12.0 88.8- 8.0 2.7---- 0.0------------
276.5 ms

 

Źródłem pochodzenia danych jest Instytut Meteorologii i Gospodarki Wodnej – Państwowy Instytut Badawczy. Dane Instytutu Meteorologii i Gospodarki Wodnej – Państwowego Instytutu Badawczego zostały przetworzone.

Dane źródłowe można odnaleźć na stronie https://dane.imgw.pl